Time;durP1;ratioP1;P1;durP2;ratioP2;P2;SDS_P1;SDS_P2;PMS_P1;PMS_P2;Temp;Humidity;BMP_temperature;BMP_pressure;BME280_temperature;BME280_humidity;BME280_pressure;Samples;Min_cycle;Max_cycle;Signal;HPM_P1;HPM_P2
2021/03/15 00:00:25;;;;;;;2.37;0.90;;;;;;;;;;5012373;28;20508;-76
2021/03/15 00:02:52;;;;;;;3.40;0.93;;;;;;;;;;5010577;28;20128;-76
2021/03/15 00:05:17;;;;;;;2.85;0.80;;;;;;;;;;5027527;28;20040;-76
2021/03/15 00:07:43;;;;;;;1.77;0.80;;;;;;;;;;5049778;28;20033;-76
2021/03/15 00:10:09;;;;;;;2.97;1.13;;;;;;;;;;4997605;28;20481;-76
2021/03/15 00:12:34;;;;;;;3.03;0.98;;;;;;;;;;5013890;28;20059;-76
2021/03/15 00:15:00;;;;;;;2.83;1.00;;;;;;;;;;5011995;28;20044;-76
2021/03/15 00:17:25;;;;;;;1.80;0.90;;;;;;;;;;5014605;28;20087;-76
2021/03/15 00:19:50;;;;;;;2.27;0.80;;;;;;;;;;5034943;28;20025;-76
2021/03/15 00:22:16;;;;;;;1.93;0.80;;;;;;;;;;5015954;28;20159;-75
2021/03/15 00:24:41;;;;;;;2.17;0.80;;;;;;;;;;5016910;28;20037;-76
2021/03/15 00:27:06;;;;;;;2.07;0.90;;;;;;;;;;5015201;28;20112;-76
2021/03/15 00:29:32;;;;;;;1.90;0.80;;;;;;;;;;4995162;28;20549;-76
2021/03/15 00:31:57;;;;;;;3.23;1.20;;;;;;;;;;5002606;28;20030;-76
2021/03/15 00:34:23;;;;;;;1.60;0.80;;;;;;;;;;5049828;28;20029;-76
2021/03/15 00:36:48;;;;;;;2.03;0.80;;;;;;;;;;5016538;28;20092;-76
2021/03/15 00:39:13;;;;;;;1.27;0.67;;;;;;;;;;5001851;28;20120;-75
2021/03/15 00:41:39;;;;;;;2.07;0.70;;;;;;;;;;5014362;28;20120;-75
2021/03/15 00:44:05;;;;;;;1.55;0.77;;;;;;;;;;5016872;28;20033;-76
2021/03/15 00:46:30;;;;;;;1.73;0.67;;;;;;;;;;5030796;28;20037;-76
2021/03/15 00:48:56;;;;;;;2.93;1.00;;;;;;;;;;5016996;28;20113;-75
2021/03/15 00:51:21;;;;;;;2.17;1.03;;;;;;;;;;5029635;28;20165;-75
2021/03/15 00:53:47;;;;;;;2.23;0.90;;;;;;;;;;5029900;28;20037;-76
2021/03/15 00:56:12;;;;;;;2.23;0.90;;;;;;;;;;5002931;28;20125;-76
2021/03/15 00:58:37;;;;;;;2.00;0.80;;;;;;;;;;5014616;28;20120;-76
2021/03/15 01:01:03;;;;;;;2.13;0.77;;;;;;;;;;4999335;28;20044;-76
2021/03/15 01:03:28;;;;;;;2.80;0.80;;;;;;;;;;5012985;28;20045;-75
2021/03/15 01:05:54;;;;;;;1.90;0.63;;;;;;;;;;5030983;28;20061;-75
2021/03/15 01:08:19;;;;;;;2.97;0.90;;;;;;;;;;5014508;28;20484;-76
2021/03/15 01:10:45;;;;;;;2.23;0.80;;;;;;;;;;5021401;28;20029;-76
2021/03/15 01:13:11;;;;;;;2.58;0.80;;;;;;;;;;5016197;28;20050;-75
2021/03/15 01:15:37;;;;;;;1.57;0.67;;;;;;;;;;5001509;28;20088;-75
2021/03/15 01:18:02;;;;;;;2.35;0.82;;;;;;;;;;4994849;28;20400;-75
2021/03/15 01:20:28;;;;;;;2.20;0.70;;;;;;;;;;5043859;28;20107;-75
2021/03/15 01:22:55;;;;;;;1.63;0.70;;;;;;;;;;5024756;28;20049;-76
2021/03/15 01:25:23;;;;;;;1.42;0.70;;;;;;;;;;5028813;28;20037;-75
2021/03/15 01:27:50;;;;;;;1.75;0.75;;;;;;;;;;4996338;28;20062;-76
2021/03/15 01:30:16;;;;;;;;;;;;;;;;;;5013631;28;20132;-76
2021/03/15 01:32:41;;;;;;;2.33;0.93;;;;;;;;;;5032804;28;19956;-76
2021/03/15 01:35:07;;;;;;;1.90;0.83;;;;;;;;;;5010250;28;20568;-76
2021/03/15 01:37:32;;;;;;;2.63;1.00;;;;;;;;;;5027580;28;20108;-75
2021/03/15 01:39:58;;;;;;;2.57;0.97;;;;;;;;;;5041271;28;20032;-75
2021/03/15 01:42:23;;;;;;;1.80;0.70;;;;;;;;;;4995966;28;20503;-76
2021/03/15 01:44:48;;;;;;;1.93;0.83;;;;;;;;;;4996113;28;20117;-76
2021/03/15 01:47:14;;;;;;;2.13;0.80;;;;;;;;;;5026541;28;20033;-75
2021/03/15 01:49:39;;;;;;;2.13;0.60;;;;;;;;;;4997403;28;20113;-76
2021/03/15 01:52:05;;;;;;;2.33;0.90;;;;;;;;;;5013089;28;20144;-75
2021/03/15 01:54:30;;;;;;;1.80;0.90;;;;;;;;;;5010131;28;20746;-75
2021/03/15 01:56:55;;;;;;;1.60;0.77;;;;;;;;;;4990030;28;20117;-76
2021/03/15 01:59:21;;;;;;;1.90;0.87;;;;;;;;;;5009925;28;20050;-76
2021/03/15 02:01:46;;;;;;;1.77;0.70;;;;;;;;;;4985673;28;20065;-76
2021/03/15 02:04:13;;;;;;;1.63;0.80;;;;;;;;;;5013833;28;20045;-76
2021/03/15 02:06:39;;;;;;;2.60;0.80;;;;;;;;;;5004362;28;20128;-76
2021/03/15 02:09:04;;;;;;;2.33;0.77;;;;;;;;;;5007378;28;20108;-75
2021/03/15 02:11:36;;;;;;;2.00;0.73;;;;;;;;;;5007016;28;20033;-76
2021/03/15 02:14:23;;;;;;;2.80;1.05;;;;;;;;;;5007619;28;20046;-75
2021/03/15 02:16:58;;;;;;;1.98;0.50;;;;;;;;;;5011964;28;20026;-76
2021/03/15 02:19:35;;;;;;;1.58;0.70;;;;;;;;;;5025639;28;20112;-75
2021/03/15 02:22:14;;;;;;;1.83;0.75;;;;;;;;;;5013475;28;20477;-76
2021/03/15 02:25:02;;;;;;;2.42;0.75;;;;;;;;;;5012121;28;20121;-75
2021/03/15 02:27:33;;;;;;;1.75;0.65;;;;;;;;;;5011520;28;20086;-75
2021/03/15 02:30:26;;;;;;;2.72;0.82;;;;;;;;;;5014967;28;20507;-75
2021/03/15 02:33:44;;;;;;;2.50;0.82;;;;;;;;;;5030084;28;20521;-75
2021/03/15 02:36:09;;;;;;;2.25;0.80;;;;;;;;;;4951772;28;20035;-76
2021/03/15 02:38:35;;;;;;;1.37;0.70;;;;;;;;;;4998918;28;20125;-75
2021/03/15 02:41:01;;;;;;;2.95;0.90;;;;;;;;;;5004123;28;20034;-75
2021/03/15 02:43:29;;;;;;;1.70;0.70;;;;;;;;;;5031564;28;20029;-75
2021/03/15 02:46:05;;;;;;;2.17;0.90;;;;;;;;;;5049601;28;20549;-76
2021/03/15 02:48:31;;;;;;;1.83;0.70;;;;;;;;;;5014004;28;20045;-75
2021/03/15 02:50:57;;;;;;;1.50;0.70;;;;;;;;;;5018722;28;20365;-75
2021/03/15 02:53:22;;;;;;;2.73;0.80;;;;;;;;;;5018936;28;20260;-75
2021/03/15 02:55:48;;;;;;;1.73;0.80;;;;;;;;;;5018722;28;20033;-75
2021/03/15 02:58:14;;;;;;;2.67;0.80;;;;;;;;;;5018428;28;20404;-75
2021/03/15 03:00:39;;;;;;;2.70;0.80;;;;;;;;;;5031813;28;20124;-75
2021/03/15 03:03:04;;;;;;;1.60;0.67;;;;;;;;;;5004740;28;20404;-76
2021/03/15 03:05:30;;;;;;;1.57;0.77;;;;;;;;;;5034468;28;20547;-75
2021/03/15 03:07:55;;;;;;;1.50;0.80;;;;;;;;;;5016287;28;20041;-75
2021/03/15 03:10:22;;;;;;;1.27;0.70;;;;;;;;;;4989215;28;20042;-76
2021/03/15 03:12:49;;;;;;;2.00;0.80;;;;;;;;;;4979587;28;20401;-75
2021/03/15 03:15:15;;;;;;;1.55;0.70;;;;;;;;;;5023622;28;20041;-75
2021/03/15 03:17:41;;;;;;;2.13;0.83;;;;;;;;;;4999397;28;20040;-75
2021/03/15 03:20:11;;;;;;;2.10;0.80;;;;;;;;;;5018259;28;20096;-75
2021/03/15 03:22:38;;;;;;;2.15;0.75;;;;;;;;;;5034657;28;20101;-76
2021/03/15 03:25:05;;;;;;;1.48;0.60;;;;;;;;;;5018071;28;20040;-76
2021/03/15 03:27:30;;;;;;;2.20;0.73;;;;;;;;;;5016775;28;20039;-75
2021/03/15 03:29:55;;;;;;;1.57;0.60;;;;;;;;;;4996208;28;20038;-75
2021/03/15 03:32:21;;;;;;;1.60;0.70;;;;;;;;;;4994873;28;20116;-75
2021/03/15 03:34:46;;;;;;;1.87;0.80;;;;;;;;;;5034261;28;20064;-76
2021/03/15 03:37:12;;;;;;;1.27;0.50;;;;;;;;;;5018595;28;20037;-75
2021/03/15 03:39:37;;;;;;;1.87;0.77;;;;;;;;;;4999871;28;20061;-75
2021/03/15 03:42:02;;;;;;;1.87;0.77;;;;;;;;;;5014562;28;20504;-75
2021/03/15 03:44:28;;;;;;;1.83;0.67;;;;;;;;;;5026353;28;20073;-76
2021/03/15 03:46:53;;;;;;;1.70;0.80;;;;;;;;;;4998130;28;20041;-76
2021/03/15 03:49:18;;;;;;;0.67;0.50;;;;;;;;;;5029356;28;20035;-75
2021/03/15 03:51:49;;;;;;;1.73;0.73;;;;;;;;;;5017335;28;20065;-76
2021/03/15 03:54:22;;;;;;;1.75;0.68;;;;;;;;;;5017611;28;20025;-76
2021/03/15 03:57:04;;;;;;;1.73;0.60;;;;;;;;;;5016889;28;20137;-76
2021/03/15 03:59:30;;;;;;;1.90;0.60;;;;;;;;;;5006447;28;20500;-75
2021/03/15 04:01:57;;;;;;;1.83;0.80;;;;;;;;;;5003407;28;20583;-76
2021/03/15 04:04:24;;;;;;;1.77;0.70;;;;;;;;;;4997677;28;20036;-76
2021/03/15 04:06:50;;;;;;;2.10;0.80;;;;;;;;;;5014565;28;20033;-76
2021/03/15 04:09:16;;;;;;;1.75;0.70;;;;;;;;;;5002243;28;20041;-76
2021/03/15 04:11:46;;;;;;;1.75;0.70;;;;;;;;;;5013874;28;20087;-75
2021/03/15 04:14:19;;;;;;;2.42;0.80;;;;;;;;;;5003096;28;20405;-75
2021/03/15 04:16:45;;;;;;;2.25;0.60;;;;;;;;;;4999420;28;20081;-75
2021/03/15 04:19:10;;;;;;;1.63;0.70;;;;;;;;;;4978362;28;20389;-76
2021/03/15 04:21:36;;;;;;;2.07;0.77;;;;;;;;;;4994096;28;20034;-75
2021/03/15 04:27:05;;;;;;;0.95;0.60;;;;;;;;;;5037711;28;20049;-76
2021/03/15 04:29:32;;;;;;;1.85;0.68;;;;;;;;;;5007904;28;20105;-76
2021/03/15 04:31:58;;;;;;;2.00;0.70;;;;;;;;;;5016736;28;20037;-76
2021/03/15 04:34:23;;;;;;;0.90;0.67;;;;;;;;;;5016647;28;20033;-76
2021/03/15 04:36:49;;;;;;;1.43;0.60;;;;;;;;;;4999423;28;20520;-76
2021/03/15 04:39:14;;;;;;;2.17;0.90;;;;;;;;;;5004532;28;20065;-76
2021/03/15 04:41:41;;;;;;;2.20;0.70;;;;;;;;;;5016691;28;20034;-76
2021/03/15 04:44:06;;;;;;;;;;;;;;;;;;5014587;28;20092;-75
2021/03/15 04:46:31;;;;;;;1.45;0.60;;;;;;;;;;5020994;28;19917;-76
2021/03/15 04:48:57;;;;;;;1.60;0.70;;;;;;;;;;4984014;28;20044;-75
2021/03/15 04:51:22;;;;;;;2.90;0.83;;;;;;;;;;5015703;28;20124;-76
2021/03/15 04:53:47;;;;;;;2.00;0.67;;;;;;;;;;5000462;28;20112;-76
2021/03/15 04:56:15;;;;;;;2.00;0.80;;;;;;;;;;5000274;28;20544;-75
2021/03/15 04:58:43;;;;;;;1.73;0.60;;;;;;;;;;5003637;28;20028;-75
2021/03/15 05:01:08;;;;;;;1.25;0.70;;;;;;;;;;4993060;28;20445;-76
2021/03/15 05:03:34;;;;;;;1.67;0.60;;;;;;;;;;5010826;28;20046;-75
2021/03/15 05:06:00;;;;;;;0.75;0.40;;;;;;;;;;4994397;28;20037;-76
2021/03/15 05:08:27;;;;;;;1.03;0.50;;;;;;;;;;4985400;28;20113;-75
2021/03/15 05:10:53;;;;;;;1.88;0.60;;;;;;;;;;5001655;28;20117;-75
2021/03/15 05:13:18;;;;;;;1.90;0.67;;;;;;;;;;5008655;28;20117;-75
2021/03/15 05:15:43;;;;;;;1.70;0.80;;;;;;;;;;5037268;28;20036;-75
2021/03/15 05:18:09;;;;;;;1.83;0.67;;;;;;;;;;5041822;22;20084;-76
2021/03/15 05:20:35;;;;;;;1.80;0.70;;;;;;;;;;5013541;28;20499;-76
2021/03/15 05:23:06;;;;;;;;;;;;;;;;;;5031477;28;20037;-76
2021/03/15 05:25:31;;;;;;;1.70;0.68;;;;;;;;;;5014074;28;19968;-77
2021/03/15 05:27:56;;;;;;;2.13;0.77;;;;;;;;;;4991927;28;20088;-76
2021/03/15 05:30:22;;;;;;;1.70;0.70;;;;;;;;;;5032338;28;20039;-76
2021/03/15 05:32:49;;;;;;;1.97;0.60;;;;;;;;;;4996578;28;20132;-77
2021/03/15 05:35:15;;;;;;;1.35;0.60;;;;;;;;;;5028666;28;20037;-77
2021/03/15 05:37:41;;;;;;;1.20;0.60;;;;;;;;;;5029984;28;20107;-77
2021/03/15 05:40:10;;;;;;;1.43;0.73;;;;;;;;;;5042581;28;20037;-77
2021/03/15 05:42:44;;;;;;;1.75;0.50;;;;;;;;;;5046952;28;20032;-77
2021/03/15 05:45:26;;;;;;;1.65;0.55;;;;;;;;;;5036556;28;20046;-77
2021/03/15 05:48:17;;;;;;;1.38;0.63;;;;;;;;;;5027206;28;20025;-77
2021/03/15 05:51:30;;;;;;;1.23;0.60;;;;;;;;;;5014707;28;20036;-77
2021/03/15 05:54:32;;;;;;;2.00;0.70;;;;;;;;;;5009393;28;20034;-77
2021/03/15 05:57:07;;;;;;;1.40;0.63;;;;;;;;;;5012109;28;20103;-77
2021/03/15 05:59:50;;;;;;;0.90;0.50;;;;;;;;;;5022566;28;20488;-77
2021/03/15 06:02:36;;;;;;;1.60;0.70;;;;;;;;;;5025112;28;20076;-77
2021/03/15 06:05:20;;;;;;;1.23;0.60;;;;;;;;;;5031741;28;20219;-77
2021/03/15 06:07:49;;;;;;;1.48;0.57;;;;;;;;;;5030078;28;20065;-77
2021/03/15 06:10:21;;;;;;;1.90;0.55;;;;;;;;;;5017029;28;20046;-77
2021/03/15 06:12:56;;;;;;;1.65;0.70;;;;;;;;;;4995848;28;20030;-77
2021/03/15 06:15:40;;;;;;;1.63;0.60;;;;;;;;;;5029061;28;20038;-77
2021/03/15 06:18:09;;;;;;;1.15;0.55;;;;;;;;;;5047202;28;20120;-78
2021/03/15 06:20:38;;;;;;;1.27;0.50;;;;;;;;;;5036399;28;20108;-77
2021/03/15 06:23:05;;;;;;;1.27;0.52;;;;;;;;;;5032855;28;20030;-77
2021/03/15 06:25:30;;;;;;;1.48;0.60;;;;;;;;;;4997075;28;20127;-77
2021/03/15 06:27:56;;;;;;;1.63;0.70;;;;;;;;;;5035920;28;20029;-77
2021/03/15 06:30:22;;;;;;;1.80;0.80;;;;;;;;;;5017417;28;20091;-77
2021/03/15 06:32:49;;;;;;;1.95;0.68;;;;;;;;;;4999458;28;20038;-77
2021/03/15 06:35:15;;;;;;;1.63;0.60;;;;;;;;;;4994680;28;20492;-77
2021/03/15 06:37:41;;;;;;;1.40;0.50;;;;;;;;;;5018673;28;20036;-77
2021/03/15 06:40:06;;;;;;;1.60;0.63;;;;;;;;;;5024122;28;20030;-77
2021/03/15 06:42:32;;;;;;;1.00;0.50;;;;;;;;;;5032142;28;20042;-77
2021/03/15 06:44:57;;;;;;;2.77;0.60;;;;;;;;;;5032328;28;20061;-77
2021/03/15 06:47:22;;;;;;;1.40;0.63;;;;;;;;;;5032218;28;20085;-76
2021/03/15 06:49:48;;;;;;;1.80;0.50;;;;;;;;;;5032111;28;20105;-77
2021/03/15 06:52:13;;;;;;;1.53;0.60;;;;;;;;;;5031998;28;20108;-77
2021/03/15 06:54:39;;;;;;;1.30;0.60;;;;;;;;;;5039592;28;20546;-77
2021/03/15 06:57:13;;;;;;;2.37;0.50;;;;;;;;;;5018340;28;20090;-77
2021/03/15 06:59:55;;;;;;;1.77;0.70;;;;;;;;;;5052046;28;20026;-77
2021/03/15 07:02:27;;;;;;;1.83;0.73;;;;;;;;;;5047054;28;20036;-78
2021/03/15 07:05:15;;;;;;;1.90;0.80;;;;;;;;;;5012307;28;20064;-77
2021/03/15 07:07:51;;;;;;;2.17;0.75;;;;;;;;;;5034048;28;20119;-76
2021/03/15 07:10:20;;;;;;;1.25;0.60;;;;;;;;;;5029379;28;20040;-76
2021/03/15 07:12:45;;;;;;;1.50;0.70;;;;;;;;;;5046391;28;20029;-76
2021/03/15 07:15:11;;;;;;;1.40;0.63;;;;;;;;;;5044103;28;20107;-77
2021/03/15 07:17:37;;;;;;;1.33;0.60;;;;;;;;;;5051397;28;20030;-77
2021/03/15 07:20:03;;;;;;;2.33;0.70;;;;;;;;;;5018055;28;20146;-78
2021/03/15 07:22:28;;;;;;;1.80;0.60;;;;;;;;;;5018705;28;20033;-77
2021/03/15 07:25:14;;;;;;;1.50;0.60;;;;;;;;;;5019389;28;20385;-77
2021/03/15 07:27:41;;;;;;;2.53;0.70;;;;;;;;;;5015062;28;20108;-77
2021/03/15 07:30:29;;;;;;;1.92;0.73;;;;;;;;;;5017795;28;20033;-77
2021/03/15 07:32:55;;;;;;;2.30;0.70;;;;;;;;;;5035806;28;20037;-77
2021/03/15 07:35:27;;;;;;;1.75;0.60;;;;;;;;;;5032843;28;20034;-77
2021/03/15 07:37:53;;;;;;;1.77;0.75;;;;;;;;;;5024061;28;20034;-78
2021/03/15 07:40:34;;;;;;;1.87;0.60;;;;;;;;;;5033754;28;20080;-77
2021/03/15 07:43:02;;;;;;;1.67;0.70;;;;;;;;;;4998195;28;20120;-77
2021/03/15 07:45:31;;;;;;;1.40;0.60;;;;;;;;;;5014593;28;20030;-77
2021/03/15 07:48:13;;;;;;;0.98;0.50;;;;;;;;;;5030504;28;20041;-77
2021/03/15 07:50:40;;;;;;;1.70;0.70;;;;;;;;;;4999138;28;20754;-77
2021/03/15 07:53:05;;;;;;;2.40;0.70;;;;;;;;;;5051506;28;20032;-77
2021/03/15 07:55:35;;;;;;;1.60;0.70;;;;;;;;;;5001229;28;20025;-77
2021/03/15 07:58:00;;;;;;;2.00;0.70;;;;;;;;;;5040033;28;20034;-77
2021/03/15 08:00:26;;;;;;;1.17;0.67;;;;;;;;;;5030928;28;20117;-77
2021/03/15 08:02:51;;;;;;;1.50;0.60;;;;;;;;;;5001509;28;20034;-77
2021/03/15 08:05:17;;;;;;;2.63;0.60;;;;;;;;;;4978567;28;20516;-77
2021/03/15 08:07:42;;;;;;;2.40;0.73;;;;;;;;;;4994668;28;20034;-77
2021/03/15 08:10:08;;;;;;;1.83;0.73;;;;;;;;;;4994910;28;20446;-78
2021/03/15 08:12:37;;;;;;;2.87;0.70;;;;;;;;;;5039221;28;20040;-77
2021/03/15 08:15:12;;;;;;;1.30;0.50;;;;;;;;;;5034105;28;20036;-77
2021/03/15 08:17:48;;;;;;;1.95;0.63;;;;;;;;;;5033866;28;20389;-77
2021/03/15 08:20:13;;;;;;;1.35;0.63;;;;;;;;;;5033659;28;20033;-77
2021/03/15 08:22:43;;;;;;;1.87;0.70;;;;;;;;;;5050082;28;20079;-77
2021/03/15 08:25:09;;;;;;;1.67;0.63;;;;;;;;;;5010904;28;20104;-77
2021/03/15 08:27:38;;;;;;;1.73;0.60;;;;;;;;;;5011841;28;20066;-78
2021/03/15 08:30:04;;;;;;;0.98;0.40;;;;;;;;;;4981169;28;20038;-77
2021/03/15 08:32:34;;;;;;;1.58;0.65;;;;;;;;;;5015698;28;20034;-77
2021/03/15 08:34:59;;;;;;;1.55;0.60;;;;;;;;;;5027141;28;20034;-77
2021/03/15 08:38:03;;;;;;;1.47;0.50;;;;;;;;;;4993979;28;20037;-77
2021/03/15 08:40:44;;;;;;;2.05;0.70;;;;;;;;;;4971905;28;20030;-77
2021/03/15 08:43:19;;;;;;;0.88;0.50;;;;;;;;;;4995133;28;20034;-77
2021/03/15 08:45:48;;;;;;;2.15;0.70;;;;;;;;;;4994963;28;20072;-77
2021/03/15 08:48:13;;;;;;;1.30;0.70;;;;;;;;;;5010030;28;20034;-77
2021/03/15 08:50:38;;;;;;;2.53;0.70;;;;;;;;;;5020821;28;20481;-77
2021/03/15 08:53:04;;;;;;;2.10;0.70;;;;;;;;;;5014358;28;20117;-77
2021/03/15 08:55:48;;;;;;;2.07;0.67;;;;;;;;;;5013381;28;20065;-77
2021/03/15 08:58:36;;;;;;;1.48;0.68;;;;;;;;;;5029734;28;20034;-77
2021/03/15 09:01:04;;;;;;;;;;;;;;;;;;5049797;28;20108;-77
2021/03/15 09:03:54;;;;;;;1.35;0.50;;;;;;;;;;5032928;28;19956;-77
2021/03/15 09:06:38;;;;;;;2.35;0.60;;;;;;;;;;5014250;28;20038;-77
2021/03/15 09:09:07;;;;;;;2.35;0.70;;;;;;;;;;5029476;28;20034;-77
2021/03/15 09:11:38;;;;;;;1.67;0.50;;;;;;;;;;5013028;28;20037;-77
2021/03/15 09:14:13;;;;;;;1.70;0.70;;;;;;;;;;5029245;28;20040;-77
2021/03/15 09:16:41;;;;;;;1.50;0.70;;;;;;;;;;5014077;28;20030;-77
2021/03/15 09:19:15;;;;;;;2.05;0.70;;;;;;;;;;5012813;28;20025;-77
2021/03/15 09:21:41;;;;;;;1.83;0.70;;;;;;;;;;4996512;28;20061;-77
2021/03/15 09:24:45;;;;;;;0.90;0.50;;;;;;;;;;5029098;28;20517;-77
2021/03/15 09:27:23;;;;;;;1.48;0.65;;;;;;;;;;5012958;28;20053;-77
2021/03/15 09:30:04;;;;;;;;;;;;;;;;;;4996599;28;20030;-77
2021/03/15 09:32:34;;;;;;;1.50;0.50;;;;;;;;;;5013852;28;19916;-77
2021/03/15 09:35:02;;;;;;;3.15;0.63;;;;;;;;;;4996235;28;20485;-77
2021/03/15 09:37:27;;;;;;;1.40;0.77;;;;;;;;;;5012972;28;20034;-78
2021/03/15 09:39:54;;;;;;;1.90;0.70;;;;;;;;;;4996186;28;20454;-77
2021/03/15 09:42:20;;;;;;;1.67;0.70;;;;;;;;;;5012285;28;20042;-77
2021/03/15 09:44:46;;;;;;;2.77;0.87;;;;;;;;;;5012431;28;20069;-77
2021/03/15 09:47:13;;;;;;;2.15;0.70;;;;;;;;;;5015498;28;20514;-77
2021/03/15 09:49:40;;;;;;;0.95;0.50;;;;;;;;;;5032148;28;20061;-77
2021/03/15 09:52:24;;;;;;;1.77;0.68;;;;;;;;;;5031990;28;20043;-77
2021/03/15 09:54:51;;;;;;;1.52;0.70;;;;;;;;;;5008279;28;20037;-76
2021/03/15 09:57:17;;;;;;;2.45;0.70;;;;;;;;;;4996043;28;20038;-76
2021/03/15 09:59:42;;;;;;;1.67;0.70;;;;;;;;;;4996005;28;20484;-76
2021/03/15 10:02:08;;;;;;;1.33;0.50;;;;;;;;;;4996073;28;20113;-76
2021/03/15 10:04:37;;;;;;;1.87;0.60;;;;;;;;;;5011628;28;20021;-76
2021/03/15 10:07:05;;;;;;;2.10;0.70;;;;;;;;;;5006376;28;20040;-77
2021/03/15 10:09:31;;;;;;;0.95;0.50;;;;;;;;;;5048507;28;20045;-76
2021/03/15 10:11:58;;;;;;;2.42;0.70;;;;;;;;;;5013133;28;20116;-76
2021/03/15 10:14:24;;;;;;;;;;;;;;;;;;4996239;28;20033;-76
2021/03/15 10:16:57;;;;;;;2.47;0.70;;;;;;;;;;5013138;28;19935;-77
2021/03/15 10:19:24;;;;;;;1.48;0.70;;;;;;;;;;4979351;28;20042;-77
2021/03/15 10:21:49;;;;;;;1.02;0.57;;;;;;;;;;4975980;28;20038;-76
2021/03/15 10:24:14;;;;;;;0.93;0.60;;;;;;;;;;4975927;28;20088;-76
2021/03/15 10:26:41;;;;;;;1.73;0.70;;;;;;;;;;5006990;28;20556;-77
2021/03/15 10:29:06;;;;;;;;;;;;;;;;;;5015502;28;20029;-77
2021/03/15 10:31:32;;;;;;;1.43;0.67;;;;;;;;;;5014893;28;19917;-76
2021/03/15 10:33:58;;;;;;;1.80;0.67;;;;;;;;;;5031640;28;20072;-76
2021/03/15 10:36:24;;;;;;;1.42;0.70;;;;;;;;;;5012742;28;20033;-77
2021/03/15 10:38:49;;;;;;;1.30;0.63;;;;;;;;;;4979322;28;20030;-76
2021/03/15 10:41:15;;;;;;;1.63;0.57;;;;;;;;;;4995358;28;20265;-76
2021/03/15 10:43:44;;;;;;;1.58;0.65;;;;;;;;;;4995389;28;20477;-77
2021/03/15 10:46:18;;;;;;;1.52;0.70;;;;;;;;;;4995437;28;20485;-76
2021/03/15 10:48:43;;;;;;;1.38;0.60;;;;;;;;;;4979015;28;20034;-76
2021/03/15 10:51:09;;;;;;;1.17;0.50;;;;;;;;;;5011733;28;20033;-76
2021/03/15 10:53:43;;;;;;;1.03;0.47;;;;;;;;;;4995981;28;20064;-76
2021/03/15 10:56:15;;;;;;;1.73;0.70;;;;;;;;;;4995937;28;20036;-76
2021/03/15 10:58:40;;;;;;;1.85;0.63;;;;;;;;;;4979907;28;20493;-77
2021/03/15 11:01:06;;;;;;;1.70;0.60;;;;;;;;;;5011998;28;20041;-76
2021/03/15 11:03:31;;;;;;;1.43;0.80;;;;;;;;;;4995721;28;20437;-76
2021/03/15 11:06:10;;;;;;;1.50;0.70;;;;;;;;;;4997261;28;20125;-77
2021/03/15 11:08:35;;;;;;;1.45;0.50;;;;;;;;;;5016175;28;20026;-77
2021/03/15 11:11:24;;;;;;;1.77;0.60;;;;;;;;;;4998862;28;20041;-77
2021/03/15 11:13:50;;;;;;;1.33;0.60;;;;;;;;;;4982470;28;20405;-77
2021/03/15 11:16:16;;;;;;;;;;;;;;;;;;4995507;28;20116;-76
2021/03/15 11:18:42;;;;;;;1.02;0.50;;;;;;;;;;5034451;28;19963;-77
2021/03/15 11:21:11;;;;;;;1.27;0.50;;;;;;;;;;5067757;22;20053;-76
2021/03/15 11:23:38;;;;;;;1.17;0.60;;;;;;;;;;5038079;28;20041;-75
2021/03/15 11:26:07;;;;;;;1.92;0.70;;;;;;;;;;5051201;28;20044;-76
2021/03/15 11:28:35;;;;;;;1.85;0.60;;;;;;;;;;5074493;28;20159;-76
2021/03/15 11:31:00;;;;;;;1.50;0.63;;;;;;;;;;5074605;28;20029;-76
2021/03/15 11:33:27;;;;;;;1.53;0.70;;;;;;;;;;5065727;28;20380;-76
2021/03/15 11:36:41;;;;;;;1.30;0.60;;;;;;;;;;5065924;28;20032;-76
2021/03/15 11:39:07;;;;;;;1.48;0.60;;;;;;;;;;5070868;28;20407;-75
2021/03/15 11:41:36;;;;;;;1.33;0.60;;;;;;;;;;5054241;28;20045;-75
2021/03/15 11:44:02;;;;;;;1.17;0.50;;;;;;;;;;5061911;28;20031;-76
2021/03/15 11:46:27;;;;;;;2.47;0.60;;;;;;;;;;5053670;28;20406;-75
2021/03/15 11:48:53;;;;;;;1.77;0.67;;;;;;;;;;5054165;28;20072;-76
2021/03/15 11:51:18;;;;;;;0.80;0.50;;;;;;;;;;5055168;28;20474;-76
2021/03/15 11:53:44;;;;;;;2.23;0.60;;;;;;;;;;5074118;28;20154;-76
2021/03/15 11:56:09;;;;;;;1.07;0.50;;;;;;;;;;5072457;28;20039;-76
2021/03/15 11:58:35;;;;;;;0.87;0.50;;;;;;;;;;5073911;28;20435;-74
2021/03/15 12:01:01;;;;;;;2.00;0.70;;;;;;;;;;5057899;28;20037;-76
2021/03/15 12:03:26;;;;;;;0.88;0.40;;;;;;;;;;5054866;28;20043;-75
2021/03/15 12:05:52;;;;;;;1.23;0.60;;;;;;;;;;5037206;28;20036;-76
2021/03/15 12:08:17;;;;;;;1.97;0.57;;;;;;;;;;5037225;28;20095;-76
2021/03/15 12:10:43;;;;;;;1.57;0.50;;;;;;;;;;5064945;28;20043;-75
2021/03/15 12:13:09;;;;;;;1.27;0.60;;;;;;;;;;5073176;28;20074;-76
2021/03/15 12:15:34;;;;;;;1.50;0.52;;;;;;;;;;5073525;28;20031;-77
2021/03/15 12:18:00;;;;;;;2.10;0.60;;;;;;;;;;5072410;28;20038;-76
2021/03/15 12:20:26;;;;;;;2.40;0.73;;;;;;;;;;5042603;28;20068;-76
2021/03/15 12:22:52;;;;;;;1.65;0.57;;;;;;;;;;5039792;28;20036;-76
2021/03/15 12:25:17;;;;;;;1.20;0.50;;;;;;;;;;5053638;28;20082;-76
2021/03/15 12:27:42;;;;;;;0.93;0.50;;;;;;;;;;5054534;28;20107;-76
2021/03/15 12:30:08;;;;;;;3.20;0.60;;;;;;;;;;5063984;28;20036;-76
2021/03/15 12:32:34;;;;;;;1.65;0.60;;;;;;;;;;5056662;28;20082;-76
2021/03/15 12:34:59;;;;;;;0.90;0.60;;;;;;;;;;5058489;28;20036;-76
2021/03/15 12:37:24;;;;;;;0.90;0.43;;;;;;;;;;5036942;28;20106;-76
2021/03/15 12:39:50;;;;;;;1.87;0.50;;;;;;;;;;5060233;28;20113;-75
2021/03/15 12:42:16;;;;;;;0.87;0.40;;;;;;;;;;5073762;28;20444;-76
2021/03/15 12:44:41;;;;;;;0.75;0.47;;;;;;;;;;5061595;28;20040;-76
2021/03/15 12:47:07;;;;;;;0.53;0.40;;;;;;;;;;5039948;28;20095;-76
2021/03/15 12:49:32;;;;;;;1.63;0.50;;;;;;;;;;5056147;28;20467;-76
2021/03/15 12:51:57;;;;;;;1.40;0.43;;;;;;;;;;5055641;28;20082;-76
2021/03/15 12:54:23;;;;;;;0.90;0.43;;;;;;;;;;5055942;28;20040;-76
2021/03/15 12:56:48;;;;;;;1.13;0.50;;;;;;;;;;5051933;28;20075;-76
2021/03/15 12:59:13;;;;;;;1.07;0.53;;;;;;;;;;5057179;28;20482;-76
2021/03/15 13:01:39;;;;;;;1.20;0.50;;;;;;;;;;5056802;28;20071;-76
2021/03/15 13:04:04;;;;;;;0.80;0.40;;;;;;;;;;5071712;28;20032;-77
2021/03/15 13:06:30;;;;;;;1.77;0.50;;;;;;;;;;5046185;28;20040;-76
2021/03/15 13:08:55;;;;;;;1.53;0.60;;;;;;;;;;5036338;28;20060;-77
2021/03/15 13:11:20;;;;;;;1.10;0.53;;;;;;;;;;5042000;28;20076;-75
2021/03/15 13:13:46;;;;;;;1.87;0.60;;;;;;;;;;5046259;28;20033;-76
2021/03/15 13:16:11;;;;;;;1.23;0.47;;;;;;;;;;5055282;28;20112;-77
2021/03/15 13:18:36;;;;;;;0.97;0.50;;;;;;;;;;5072943;28;20446;-76
2021/03/15 13:21:03;;;;;;;3.23;0.60;;;;;;;;;;5073408;28;20036;-77
2021/03/15 13:23:28;;;;;;;1.10;0.52;;;;;;;;;;5049857;28;20033;-77
2021/03/15 13:25:53;;;;;;;2.67;0.50;;;;;;;;;;5036986;28;20105;-77
2021/03/15 13:28:19;;;;;;;1.70;0.63;;;;;;;;;;5054905;28;20067;-76
2021/03/15 13:30:44;;;;;;;1.20;0.50;;;;;;;;;;5068140;28;20112;-77
2021/03/15 13:33:11;;;;;;;1.70;0.50;;;;;;;;;;5055823;28;20102;-76
2021/03/15 13:35:37;;;;;;;1.25;0.60;;;;;;;;;;5073474;28;20029;-80
2021/03/15 13:38:02;;;;;;;1.27;0.40;;;;;;;;;;5072724;28;20044;-77
2021/03/15 13:40:28;;;;;;;1.33;0.57;;;;;;;;;;5073256;28;20036;-78
2021/03/15 13:42:53;;;;;;;3.03;0.50;;;;;;;;;;5054179;28;20519;-77
2021/03/15 13:45:19;;;;;;;1.70;0.60;;;;;;;;;;5053063;28;20513;-76
2021/03/15 13:47:44;;;;;;;1.67;0.50;;;;;;;;;;5054005;28;20029;-76
2021/03/15 13:50:10;;;;;;;2.20;0.60;;;;;;;;;;5041566;28;20534;-79
2021/03/15 13:52:35;;;;;;;4.55;0.73;;;;;;;;;;5063916;28;20071;-77
2021/03/15 13:55:00;;;;;;;1.10;0.43;;;;;;;;;;5055921;28;20093;-77
2021/03/15 13:57:26;;;;;;;1.13;0.40;;;;;;;;;;5060498;28;20059;-77
2021/03/15 13:59:51;;;;;;;1.13;0.50;;;;;;;;;;5053474;28;20040;-77
2021/03/15 14:02:16;;;;;;;1.37;0.50;;;;;;;;;;5048598;28;20072;-77
2021/03/15 14:04:45;;;;;;;1.67;0.53;;;;;;;;;;5033596;28;20499;-77
2021/03/15 14:07:10;;;;;;;1.30;0.60;;;;;;;;;;5049443;28;20061;-77
2021/03/15 14:09:36;;;;;;;2.33;0.53;;;;;;;;;;5022518;28;20144;-77
2021/03/15 14:12:01;;;;;;;2.97;0.60;;;;;;;;;;5058544;28;20037;-78
2021/03/15 14:14:26;;;;;;;1.70;0.60;;;;;;;;;;5053096;28;20089;-77
2021/03/15 14:16:52;;;;;;;2.30;0.60;;;;;;;;;;5057484;28;20071;-76
2021/03/15 14:19:17;;;;;;;0.90;0.60;;;;;;;;;;5035594;28;20049;-76
2021/03/15 14:21:43;;;;;;;2.47;0.60;;;;;;;;;;5051974;28;20045;-75
2021/03/15 14:24:09;;;;;;;1.23;0.57;;;;;;;;;;5051701;28;20045;-75
2021/03/15 14:26:34;;;;;;;1.03;0.50;;;;;;;;;;5054290;28;20040;-76
2021/03/15 14:29:03;;;;;;;0.80;0.50;;;;;;;;;;5052805;28;20056;-75
2021/03/15 14:31:29;;;;;;;1.15;0.50;;;;;;;;;;5018913;28;20045;-76
2021/03/15 14:33:54;;;;;;;1.50;0.50;;;;;;;;;;5034934;28;20041;-77
2021/03/15 14:36:19;;;;;;;2.73;0.70;;;;;;;;;;5060351;28;20071;-75
2021/03/15 14:38:45;;;;;;;1.13;0.40;;;;;;;;;;5072911;28;20062;-76
2021/03/15 14:41:10;;;;;;;2.00;0.60;;;;;;;;;;5075303;28;20056;-76
2021/03/15 14:43:35;;;;;;;1.70;0.50;;;;;;;;;;5057192;28;20487;-75
2021/03/15 14:46:01;;;;;;;3.13;0.60;;;;;;;;;;5062567;28;20435;-76
2021/03/15 14:48:26;;;;;;;9.23;1.00;;;;;;;;;;5038963;28;20536;-76
2021/03/15 14:50:51;;;;;;;7.70;1.07;;;;;;;;;;5038611;28;20056;-76
2021/03/15 14:53:17;;;;;;;7.70;1.33;;;;;;;;;;5038683;28;20138;-76
2021/03/15 14:55:43;;;;;;;5.32;1.00;;;;;;;;;;5050561;28;20049;-76